Time;durP1;ratioP1;P1;durP2;ratioP2;P2;SDS_P1;SDS_P2;PMS_P1;PMS_P2;Temp;Humidity;BMP_temperature;BMP_pressure;BME280_temperature;BME280_humidity;BME280_pressure;Samples;Min_cycle;Max_cycle;Signal;HPM_P1;HPM_P2
2021/06/05 00:01:51;;;;;;;9.65;7.93;;;17.70;77.80;;;;;;5042956;28;20747;-69
2021/06/05 00:04:18;;;;;;;9.60;7.68;;;17.70;77.80;;;;;;5053987;28;20017;-69
2021/06/05 00:06:44;;;;;;;9.45;7.72;;;17.70;77.70;;;;;;5042348;28;20029;-69
2021/06/05 00:09:11;;;;;;;9.88;7.82;;;17.80;77.50;;;;;;5046434;28;20136;-69
2021/06/05 00:11:37;;;;;;;8.50;7.60;;;17.90;77.20;;;;;;5048798;28;20029;-68
2021/06/05 00:14:06;;;;;;;11.30;8.35;;;17.90;77.00;;;;;;5039589;28;20028;-68
2021/06/05 00:16:44;;;;;;;10.00;8.50;;;18.00;76.90;;;;;;5052296;28;20013;-69
2021/06/05 00:19:15;;;;;;;13.00;8.40;;;17.90;76.80;;;;;;5046406;28;20032;-68
2021/06/05 00:21:41;;;;;;;11.00;8.87;;;17.90;77.00;;;;;;5043231;28;20494;-70
2021/06/05 00:24:08;;;;;;;11.05;7.93;;;18.00;77.10;;;;;;5053593;28;20020;-69
2021/06/05 00:26:34;;;;;;;11.05;8.35;;;18.00;77.20;;;;;;5038109;28;20016;-68
2021/06/05 00:29:01;;;;;;;9.77;7.97;;;18.00;77.20;;;;;;5040979;28;20029;-68
2021/06/05 00:31:27;;;;;;;14.20;9.18;;;18.10;77.00;;;;;;5041901;28;20447;-68
2021/06/05 00:33:53;;;;;;;11.75;8.98;;;18.10;77.00;;;;;;5048938;28;20039;-67
2021/06/05 00:36:20;;;;;;;14.68;8.63;;;18.10;76.90;;;;;;5036640;28;20159;-68
2021/06/05 00:38:45;;;;;;;9.90;8.30;;;18.10;76.90;;;;;;5047971;28;20424;-68
2021/06/05 00:41:15;;;;;;;12.13;7.70;;;18.20;76.80;;;;;;5043447;28;20100;-67
2021/06/05 00:43:46;;;;;;;12.40;8.80;;;18.20;76.50;;;;;;5039932;28;20029;-68
2021/06/05 00:46:15;;;;;;;14.80;8.88;;;18.20;76.60;;;;;;5048608;28;20364;-68
2021/06/05 00:48:41;;;;;;;17.45;9.27;;;18.30;76.60;;;;;;5038927;28;20170;-69
2021/06/05 00:51:07;;;;;;;10.75;9.18;;;18.20;76.60;;;;;;5043134;28;20390;-68
2021/06/05 00:53:34;;;;;;;11.32;8.98;;;18.30;76.50;;;;;;5045906;28;20021;-68
2021/06/05 00:56:03;;;;;;;10.32;8.73;;;18.30;76.80;;;;;;5037033;28;20017;-69
2021/06/05 00:58:30;;;;;;;11.02;8.82;;;18.30;77.00;;;;;;5037143;28;20005;-69
2021/06/05 01:00:59;;;;;;;9.80;8.80;;;18.30;77.00;;;;;;5045647;28;20029;-68
2021/06/05 01:03:25;;;;;;;10.40;8.60;;;18.20;77.00;;;;;;5044798;28;20070;-69
2021/06/05 01:06:13;;;;;;;12.02;9.45;;;18.20;77.30;;;;;;5038186;28;20476;-68
2021/06/05 01:08:51;;;;;;;11.05;9.68;;;18.20;77.40;;;;;;5038259;28;20020;-69
2021/06/05 01:11:36;;;;;;;14.90;9.68;;;18.30;77.10;;;;;;5041591;28;20018;-69
2021/06/05 01:14:34;;;;;;;13.52;9.27;;;18.40;75.80;;;;;;5048387;28;20024;-69
2021/06/05 01:17:39;;;;;;;15.68;9.32;;;18.50;75.30;;;;;;5040748;28;20017;-68
2021/06/05 01:20:36;;;;;;;12.20;9.68;;;18.60;74.30;;;;;;4991342;28;20027;-68
2021/06/05 01:23:07;;;;;;;10.80;8.45;;;18.60;73.80;;;;;;4967359;28;20201;-68
2021/06/05 01:25:42;;;;;;;;;;;18.60;73.90;;;;;;5027209;28;20025;-69
2021/06/05 01:28:21;;;;;;;10.35;8.02;;;18.70;73.10;;;;;;5047542;28;19931;-69
2021/06/05 01:30:50;;;;;;;9.52;7.15;;;18.60;73.20;;;;;;5037802;28;20467;-68
2021/06/05 01:33:21;;;;;;;9.73;7.43;;;18.60;73.40;;;;;;5041153;28;20025;-69
2021/06/05 01:35:48;;;;;;;8.73;7.55;;;18.60;73.50;;;;;;5047008;28;20036;-69
2021/06/05 01:38:15;;;;;;;8.73;7.38;;;18.50;73.70;;;;;;5033771;28;20108;-69
2021/06/05 01:40:46;;;;;;;9.90;7.05;;;18.50;73.80;;;;;;5047519;28;20017;-68
2021/06/05 01:43:15;;;;;;;9.02;6.88;;;18.50;73.70;;;;;;5042260;28;20057;-68
2021/06/05 01:45:42;;;;;;;9.20;6.50;;;18.40;73.90;;;;;;5037128;28;20032;-68
2021/06/05 01:48:11;;;;;;;11.48;7.25;;;18.40;74.00;;;;;;5047956;28;20029;-69
2021/06/05 01:50:38;;;;;;;9.02;7.68;;;18.40;74.10;;;;;;5035842;28;20020;-69
2021/06/05 01:53:11;;;;;;;8.63;7.30;;;18.40;74.50;;;;;;5043588;28;20403;-70
2021/06/05 01:55:47;;;;;;;9.93;7.95;;;18.30;74.70;;;;;;5044133;28;20025;-69
2021/06/05 01:58:15;;;;;;;8.75;7.63;;;18.30;75.00;;;;;;5034719;28;20096;-69
2021/06/05 02:00:47;;;;;;;8.95;7.57;;;18.20;75.50;;;;;;5045587;28;20053;-69
2021/06/05 02:03:15;;;;;;;11.55;8.10;;;18.20;76.20;;;;;;5042063;28;20082;-69
2021/06/05 02:05:42;;;;;;;9.45;8.48;;;18.10;76.30;;;;;;5037917;28;20160;-69
2021/06/05 02:08:09;;;;;;;11.82;8.45;;;18.10;76.60;;;;;;5063068;28;20378;-69
2021/06/05 02:10:36;;;;;;;14.02;9.88;;;18.10;76.80;;;;;;5036459;28;20104;-69
2021/06/05 02:13:03;;;;;;;12.43;9.98;;;18.00;77.30;;;;;;5043771;28;20017;-69
2021/06/05 02:15:45;;;;;;;12.70;9.27;;;18.00;77.00;;;;;;5043821;28;20036;-69
2021/06/05 02:18:18;;;;;;;13.73;9.52;;;18.00;77.10;;;;;;5034629;28;20033;-69
2021/06/05 02:20:50;;;;;;;12.27;9.45;;;18.00;77.50;;;;;;5046142;28;20095;-68
2021/06/05 02:23:29;;;;;;;11.50;9.80;;;17.90;78.10;;;;;;5042143;28;20390;-68
2021/06/05 02:25:58;;;;;;;11.73;8.05;;;17.90;78.10;;;;;;5036001;28;20049;-68
2021/06/05 02:28:25;;;;;;;10.82;8.68;;;17.90;77.80;;;;;;5035747;28;20024;-68
2021/06/05 02:30:50;;;;;;;11.00;9.32;;;18.00;78.10;;;;;;5044897;28;20026;-68
2021/06/05 02:33:17;;;;;;;9.02;8.02;;;17.90;78.10;;;;;;5041897;28;20013;-67
2021/06/05 02:35:45;;;;;;;12.25;7.80;;;17.90;77.80;;;;;;5037235;28;20379;-67
2021/06/05 02:38:13;;;;;;;12.05;9.00;;;17.90;77.60;;;;;;5045787;28;20044;-67
2021/06/05 02:40:39;;;;;;;13.48;9.25;;;17.90;77.80;;;;;;5036513;28;20047;-67
2021/06/05 02:43:11;;;;;;;9.30;8.13;;;17.80;78.20;;;;;;5049420;28;20025;-66
2021/06/05 02:46:00;;;;;;;11.45;8.73;;;17.70;78.20;;;;;;5050873;28;20024;-68
2021/06/05 02:48:49;;;;;;;10.95;8.85;;;17.80;78.30;;;;;;5034422;28;20016;-68
2021/06/05 02:51:18;;;;;;;9.32;8.32;;;17.70;78.30;;;;;;5040339;28;20024;-68
2021/06/05 02:53:44;;;;;;;10.57;8.10;;;17.80;78.40;;;;;;5044855;28;20082;-67
2021/06/05 02:56:10;;;;;;;9.55;7.75;;;17.80;78.50;;;;;;5033864;28;20018;-68
2021/06/05 02:58:37;;;;;;;11.60;8.40;;;17.80;78.40;;;;;;5046256;28;20013;-67
2021/06/05 03:01:05;;;;;;;8.98;7.90;;;17.80;78.40;;;;;;5039466;28;20061;-67
2021/06/05 03:03:31;;;;;;;9.02;7.57;;;17.80;78.30;;;;;;5038599;28;20148;-68
2021/06/05 03:06:00;;;;;;;10.07;7.85;;;17.90;78.30;;;;;;5046421;28;20676;-67
2021/06/05 03:08:30;;;;;;;11.20;8.30;;;18.00;78.10;;;;;;5033886;28;20021;-68
2021/06/05 03:10:57;;;;;;;10.77;7.53;;;18.00;78.00;;;;;;5043512;28;20017;-68
2021/06/05 03:13:23;;;;;;;8.65;7.32;;;18.00;78.10;;;;;;5042174;28;20284;-67
2021/06/05 03:15:49;;;;;;;182.68;159.82;;;18.10;77.80;;;;;;5035995;28;20781;-68
2021/06/05 03:18:16;;;;;;;44.58;35.95;;;18.20;77.50;;;;;;5045177;28;20027;-68
2021/06/05 03:20:46;;;;;;;49.00;28.02;;;18.30;77.30;;;;;;5035066;28;20088;-68
2021/06/05 03:23:15;;;;;;;22.17;17.00;;;18.40;76.80;;;;;;5039907;28;20033;-69
2021/06/05 03:25:41;;;;;;;20.35;14.23;;;18.50;76.70;;;;;;5044198;28;20028;-68
2021/06/05 03:28:07;;;;;;;12.90;8.70;;;18.60;76.20;;;;;;5057389;22;20041;-66
2021/06/05 03:30:36;;;;;;;26.90;16.27;;;18.90;75.70;;;;;;5030864;28;20098;-66
2021/06/05 03:33:02;;;;;;;181.02;126.20;;;19.40;74.40;;;;;;5022781;28;20423;-64
2021/06/05 03:35:28;;;;;;;65.68;42.35;;;19.90;72.70;;;;;;5023733;28;20022;-66
2021/06/05 03:37:53;;;;;;;22.15;16.17;;;20.50;70.60;;;;;;5016469;28;20026;-66
2021/06/05 03:40:25;;;;;;;38.40;24.60;;;21.00;68.50;;;;;;5029484;28;20033;-66
2021/06/05 03:42:50;;;;;;;23.38;13.50;;;21.50;66.70;;;;;;5006650;28;20036;-66
2021/06/05 03:45:17;;;;;;;12.75;10.13;;;21.60;65.50;;;;;;5021228;28;20025;-66
2021/06/05 03:47:46;;;;;;;20.48;10.77;;;21.60;65.90;;;;;;5007885;28;20030;-65
2021/06/05 03:50:14;;;;;;;19.95;14.55;;;22.00;65.10;;;;;;5027151;28;20486;-66
2021/06/05 03:52:39;;;;;;;13.35;9.10;;;22.50;63.20;;;;;;5016184;28;20510;-66
2021/06/05 03:55:07;;;;;;;13.55;8.93;;;23.00;62.10;;;;;;5022072;28;20014;-66
2021/06/05 03:57:34;;;;;;;10.43;8.57;;;23.20;60.50;;;;;;5022450;28;20112;-66
2021/06/05 04:00:00;;;;;;;11.80;8.60;;;23.10;60.80;;;;;;5014482;28;20087;-66
2021/06/05 04:02:26;;;;;;;10.60;8.25;;;23.20;60.40;;;;;;5028751;28;20018;-66
2021/06/05 04:04:52;;;;;;;12.63;8.15;;;23.50;59.70;;;;;;5021511;28;20036;-66
2021/06/05 04:07:19;;;;;;;9.20;8.02;;;24.30;57.50;;;;;;5023404;28;20041;-66
2021/06/05 04:09:46;;;;;;;11.13;7.95;;;24.50;56.60;;;;;;5028409;28;20025;-66
2021/06/05 04:12:13;;;;;;;13.98;7.40;;;25.20;55.10;;;;;;5017820;28;20442;-66
2021/06/05 04:14:40;;;;;;;10.30;7.75;;;25.60;53.40;;;;;;5029293;28;20464;-65
2021/06/05 04:17:09;;;;;;;9.52;7.35;;;25.20;53.50;;;;;;5022382;28;20113;-65
2021/06/05 04:19:36;;;;;;;10.02;7.80;;;24.10;55.80;;;;;;5021297;28;20168;-65
2021/06/05 04:22:05;;;;;;;9.90;8.35;;;22.90;60.80;;;;;;5030627;28;20032;-66
2021/06/05 04:24:32;;;;;;;11.88;8.50;;;22.20;62.40;;;;;;5018459;28;20489;-65
2021/06/05 04:26:58;;;;;;;8.90;6.75;;;22.40;63.20;;;;;;5008858;28;20026;-66
2021/06/05 04:29:23;;;;;;;9.32;6.03;;;23.80;58.90;;;;;;5033346;28;20087;-66
2021/06/05 04:31:49;;;;;;;6.28;5.05;;;24.80;55.40;;;;;;5014850;28;20025;-66
2021/06/05 04:34:14;;;;;;;4.63;4.22;;;26.00;52.50;;;;;;5017263;28;20026;-65
2021/06/05 04:36:40;;;;;;;5.65;4.80;;;26.20;50.40;;;;;;5010028;28;20076;-65
2021/06/05 04:39:06;;;;;;;5.72;5.05;;;26.60;49.70;;;;;;5022535;28;20368;-68
2021/06/05 04:41:32;;;;;;;5.10;4.60;;;27.20;48.10;;;;;;5021128;28;20025;-66
2021/06/05 04:43:57;;;;;;;6.03;4.53;;;27.00;48.50;;;;;;5029503;28;20033;-66
2021/06/05 04:46:23;;;;;;;5.95;4.28;;;27.30;47.70;;;;;;5016361;28;20029;-67
2021/06/05 04:48:49;;;;;;;6.47;4.75;;;27.40;47.30;;;;;;5027052;28;20101;-66
2021/06/05 04:51:16;;;;;;;8.43;4.85;;;27.40;46.70;;;;;;5000141;28;20026;-66
2021/06/05 04:53:42;;;;;;;5.47;4.70;;;26.90;48.00;;;;;;5031043;28;20021;-66
2021/06/05 04:56:08;;;;;;;8.05;5.47;;;26.50;48.70;;;;;;5029773;28;20601;-66
2021/06/05 04:58:33;;;;;;;10.50;5.20;;;26.80;48.20;;;;;;5027700;28;20018;-66
2021/06/05 05:00:59;;;;;;;6.38;5.10;;;27.20;48.00;;;;;;5023296;28;20034;-66
2021/06/05 05:03:28;;;;;;;8.30;5.00;;;27.40;46.70;;;;;;5022928;28;20021;-67
2021/06/05 05:05:56;;;;;;;6.97;4.72;;;27.40;46.90;;;;;;5016118;28;20481;-66
2021/06/05 05:08:23;;;;;;;6.57;5.28;;;27.60;46.90;;;;;;5029026;28;20029;-65
2021/06/05 05:10:50;;;;;;;11.63;5.43;;;27.60;46.50;;;;;;5030318;28;20034;-66
2021/06/05 05:13:29;;;;;;;6.70;5.00;;;28.50;44.40;;;;;;5022150;28;20018;-66
2021/06/05 05:15:56;;;;;;;11.20;5.25;;;29.70;42.30;;;;;;5028612;28;20475;-65
2021/06/05 05:18:23;;;;;;;10.00;5.43;;;30.40;39.90;;;;;;4998269;28;20030;-66
2021/06/05 05:20:48;;;;;;;6.88;4.75;;;30.00;40.90;;;;;;5026533;28;20033;-66
2021/06/05 05:23:15;;;;;;;8.40;5.32;;;30.50;40.00;;;;;;5005359;28;20025;-66
2021/06/05 05:25:43;;;;;;;8.48;5.72;;;31.50;38.50;;;;;;5018949;28;20061;-66
2021/06/05 05:28:12;;;;;;;12.18;5.72;;;32.90;35.80;;;;;;5028357;28;20029;-66
2021/06/05 05:30:41;;;;;;;15.60;7.53;;;32.50;35.60;;;;;;5017783;28;20030;-66
2021/06/05 05:33:07;;;;;;;7.65;5.97;;;31.80;37.10;;;;;;5023725;28;20037;-66
2021/06/05 05:35:34;;;;;;;8.75;6.78;;;30.80;38.90;;;;;;5025631;28;20025;-66
2021/06/05 05:38:02;;;;;;;9.85;6.90;;;28.50;43.50;;;;;;5029905;28;20024;-66
2021/06/05 05:40:28;;;;;;;11.93;6.82;;;26.60;48.30;;;;;;5017444;28;20028;-66
2021/06/05 05:42:54;;;;;;;16.33;7.32;;;25.90;50.50;;;;;;5007615;28;20025;-67
2021/06/05 05:45:21;;;;;;;13.73;6.85;;;25.60;51.80;;;;;;5023361;28;20021;-66
2021/06/05 05:47:46;;;;;;;12.60;6.80;;;25.30;52.90;;;;;;5017103;28;20022;-67
2021/06/05 05:50:15;;;;;;;11.27;6.25;;;25.90;51.90;;;;;;5028838;28;20084;-66
2021/06/05 05:52:41;;;;;;;7.72;6.95;;;26.80;49.20;;;;;;5004063;28;20028;-65
2021/06/05 05:55:08;;;;;;;9.82;7.63;;;26.40;49.70;;;;;;5032051;28;20029;-67
2021/06/05 05:57:34;;;;;;;11.77;7.30;;;25.70;51.40;;;;;;5022500;28;20082;-67
2021/06/05 06:00:00;;;;;;;11.75;7.30;;;25.40;52.90;;;;;;5032102;28;20502;-66
2021/06/05 06:02:25;;;;;;;9.50;7.00;;;25.80;52.40;;;;;;4997928;28;20018;-66
2021/06/05 06:04:51;;;;;;;7.40;6.60;;;26.40;50.50;;;;;;5025388;28;20107;-66
2021/06/05 06:07:16;;;;;;;11.52;7.38;;;26.20;50.90;;;;;;5021766;28;20031;-66
2021/06/05 06:09:42;;;;;;;8.65;7.18;;;25.90;52.10;;;;;;5022485;28;20474;-67
2021/06/05 06:12:08;;;;;;;11.65;6.93;;;25.80;52.80;;;;;;5019308;28;20026;-67
2021/06/05 06:14:34;;;;;;;9.07;6.70;;;26.40;51.60;;;;;;5005883;28;20147;-67
2021/06/05 06:17:00;;;;;;;12.27;7.35;;;27.10;49.70;;;;;;5005475;28;20133;-67
2021/06/05 06:19:26;;;;;;;8.73;7.18;;;27.50;48.10;;;;;;5019781;28;20383;-67
2021/06/05 06:21:51;;;;;;;13.07;7.85;;;26.60;49.60;;;;;;5009094;28;20017;-67
2021/06/05 06:24:17;;;;;;;11.32;7.47;;;25.50;52.80;;;;;;5015189;28;20379;-67
2021/06/05 06:26:43;;;;;;;11.00;7.63;;;25.30;53.60;;;;;;5028116;28;20024;-66
2021/06/05 06:29:14;;;;;;;10.43;8.00;;;26.00;52.70;;;;;;5022245;28;20033;-67
2021/06/05 06:31:40;;;;;;;;;;;26.70;50.30;;;;;;5023678;28;20067;-67
2021/06/05 06:34:05;;;;;;;10.52;7.28;;;27.40;48.30;;;;;;5023498;28;19905;-67
2021/06/05 06:36:31;;;;;;;12.95;7.43;;;27.40;48.30;;;;;;5026748;28;20018;-67
2021/06/05 06:38:57;;;;;;;11.38;7.63;;;27.40;48.20;;;;;;5023431;28;20025;-68
2021/06/05 06:41:27;;;;;;;9.30;7.53;;;26.70;49.60;;;;;;5002708;28;20025;-68
2021/06/05 06:43:53;;;;;;;13.40;7.43;;;26.60;50.30;;;;;;5026505;28;20493;-68
2021/06/05 06:46:29;;;;;;;8.95;6.57;;;27.10;49.60;;;;;;4996731;28;20032;-68
2021/06/05 06:48:57;;;;;;;9.40;7.65;;;28.10;47.10;;;;;;5024529;28;20022;-69
2021/06/05 06:51:24;;;;;;;8.63;7.13;;;28.20;45.80;;;;;;5025145;28;20033;-68
2021/06/05 06:53:50;;;;;;;8.38;7.47;;;28.00;47.30;;;;;;5016312;28;20536;-67
2021/06/05 06:56:16;;;;;;;13.90;8.23;;;28.10;46.30;;;;;;5026909;28;20061;-67
2021/06/05 06:58:44;;;;;;;11.68;7.93;;;28.60;45.40;;;;;;5016672;28;20025;-68
2021/06/05 07:01:12;;;;;;;9.70;7.13;;;29.80;42.90;;;;;;5003399;28;20313;-67
2021/06/05 07:03:38;;;;;;;8.48;7.15;;;30.90;40.10;;;;;;5024040;28;20029;-68
2021/06/05 07:06:04;;;;;;;8.95;7.28;;;30.40;41.00;;;;;;5013968;28;20032;-67
2021/06/05 07:08:33;;;;;;;10.50;6.82;;;30.70;40.40;;;;;;5027022;28;20022;-68
2021/06/05 07:11:03;;;;;;;8.30;6.75;;;31.00;39.80;;;;;;5001339;28;20383;-68
2021/06/05 07:13:29;;;;;;;9.38;7.03;;;30.20;41.60;;;;;;5018931;28;20479;-67
2021/06/05 07:15:57;;;;;;;8.98;6.97;;;29.00;44.40;;;;;;5008732;28;20044;-67
2021/06/05 07:18:26;;;;;;;9.55;6.40;;;28.90;44.70;;;;;;5010473;28;20026;-69
2021/06/05 07:20:52;;;;;;;8.40;6.30;;;28.90;44.60;;;;;;5027409;28;20022;-69
2021/06/05 07:23:19;;;;;;;10.18;7.50;;;28.90;44.60;;;;;;5017981;28;20021;-70
2021/06/05 07:25:45;;;;;;;7.65;6.88;;;28.80;44.70;;;;;;5021022;28;20064;-69
2021/06/05 07:28:18;;;;;;;15.48;7.72;;;28.80;45.40;;;;;;5028458;28;20045;-68
2021/06/05 07:30:45;;;;;;;10.48;7.70;;;28.30;45.20;;;;;;4997063;28;20028;-68
2021/06/05 07:33:11;;;;;;;9.05;6.90;;;27.60;46.70;;;;;;5007285;28;20088;-68
2021/06/05 07:35:38;;;;;;;10.57;7.68;;;27.30;48.20;;;;;;5020450;28;20026;-67
2021/06/05 07:38:05;;;;;;;9.32;7.53;;;27.30;48.30;;;;;;5019447;28;20434;-69
2021/06/05 07:40:31;;;;;;;11.60;8.25;;;28.00;46.80;;;;;;5011998;28;20030;-68
2021/06/05 07:42:56;;;;;;;12.05;7.70;;;28.00;45.90;;;;;;5024887;28;20532;-68
2021/06/05 07:45:23;;;;;;;11.68;8.18;;;28.40;46.70;;;;;;5021330;28;20048;-69
2021/06/05 07:47:49;;;;;;;9.00;8.07;;;28.90;44.40;;;;;;4998325;28;20029;-68
2021/06/05 07:50:15;;;;;;;8.57;7.57;;;29.00;44.10;;;;;;5024890;28;20017;-69
2021/06/05 07:52:41;;;;;;;8.98;7.07;;;28.80;44.60;;;;;;5018209;28;20026;-68
2021/06/05 07:55:10;;;;;;;8.82;7.18;;;29.40;43.90;;;;;;5029006;28;20022;-69
2021/06/05 07:57:36;;;;;;;8.90;7.63;;;29.40;43.20;;;;;;5005282;28;20016;-70
2021/06/05 08:00:06;;;;;;;9.77;7.35;;;28.80;44.60;;;;;;5020623;28;20073;-69
2021/06/05 08:02:31;;;;;;;10.05;8.05;;;28.90;44.80;;;;;;5031171;28;20375;-69
2021/06/05 08:04:57;;;;;;;7.60;5.65;;;29.40;44.00;;;;;;5018392;28;20025;-70
2021/06/05 08:07:22;;;;;;;10.07;7.00;;;29.70;43.70;;;;;;5026543;28;20435;-69
2021/06/05 08:09:48;;;;;;;11.02;6.60;;;30.10;42.30;;;;;;5025112;28;20021;-69
2021/06/05 08:12:14;;;;;;;7.53;5.50;;;30.50;41.60;;;;;;5019532;28;20493;-68
2021/06/05 08:14:39;;;;;;;7.90;5.60;;;30.60;40.40;;;;;;5030469;28;20109;-69
2021/06/05 08:17:05;;;;;;;7.78;6.97;;;30.40;40.60;;;;;;5018297;28;20018;-68
2021/06/05 08:19:30;;;;;;;12.73;6.05;;;30.20;40.30;;;;;;5025506;28;20025;-69
2021/06/05 08:21:56;;;;;;;8.38;6.57;;;30.20;40.90;;;;;;5023620;28;20025;-68
2021/06/05 08:24:23;;;;;;;8.15;6.63;;;30.10;40.00;;;;;;5015843;28;20142;-68
2021/06/05 08:26:51;;;;;;;422.88;321.65;;;30.20;39.80;;;;;;5015208;28;20033;-68
2021/06/05 08:29:16;;;;;;;9.63;6.85;;;31.50;38.40;;;;;;5018122;28;20103;-69
2021/06/05 08:31:42;;;;;;;6.68;5.65;;;32.30;37.30;;;;;;5015884;28;20475;-68
2021/06/05 08:34:08;;;;;;;6.10;5.43;;;32.50;35.70;;;;;;5020356;28;20010;-68
2021/06/05 08:36:34;;;;;;;6.13;5.53;;;32.10;36.60;;;;;;5012258;28;20121;-68
2021/06/05 08:39:01;;;;;;;7.68;5.65;;;31.80;37.30;;;;;;5018038;28;20557;-69
2021/06/05 08:41:36;;;;;;;9.38;5.85;;;31.30;37.50;;;;;;5025488;28;20022;-69
2021/06/05 08:44:09;;;;;;;13.45;5.80;;;31.30;39.40;;;;;;5006999;28;20044;-68
2021/06/05 08:46:49;;;;;;;8.98;5.57;;;31.00;42.90;;;;;;5027603;28;20463;-69
2021/06/05 08:49:24;;;;;;;7.40;5.93;;;30.50;44.40;;;;;;5018909;28;20080;-69
2021/06/05 08:52:06;;;;;;;13.13;6.30;;;30.00;44.10;;;;;;5033003;28;20475;-69
2021/06/05 08:55:00;;;;;;;10.50;5.95;;;29.00;51.20;;;;;;5016890;28;20105;-68
2021/06/05 08:57:40;;;;;;;6.93;5.95;;;28.10;56.00;;;;;;5006375;28;20079;-68
2021/06/05 09:00:26;;;;;;;8.27;6.82;;;27.20;61.70;;;;;;5026450;28;20045;-67
2021/06/05 09:02:57;;;;;;;9.38;6.55;;;26.90;59.50;;;;;;5014675;28;20464;-67
2021/06/05 09:05:28;;;;;;;8.13;5.90;;;26.90;55.80;;;;;;5020811;28;20057;-69
2021/06/05 09:07:54;;;;;;;7.10;5.97;;;27.10;53.40;;;;;;5020495;28;20121;-68
2021/06/05 09:10:23;;;;;;;9.25;6.03;;;27.50;53.40;;;;;;5010412;28;20126;-69
2021/06/05 09:12:49;;;;;;;7.97;5.90;;;27.70;51.60;;;;;;4998624;28;20048;-68
2021/06/05 09:15:33;;;;;;;8.15;6.90;;;28.00;51.90;;;;;;5026632;28;20018;-68
2021/06/05 09:18:02;;;;;;;9.20;5.80;;;28.40;49.60;;;;;;5006269;28;20028;-69
2021/06/05 09:20:37;;;;;;;8.60;5.88;;;28.50;49.40;;;;;;5016296;28;20095;-68
2021/06/05 09:23:22;;;;;;;6.38;5.78;;;28.70;49.90;;;;;;5028119;28;20185;-69
2021/06/05 09:25:47;;;;;;;11.15;6.85;;;28.70;48.20;;;;;;5023889;28;20497;-68
2021/06/05 09:28:18;;;;;;;7.13;6.18;;;28.70;48.00;;;;;;5024936;22;70511;-69
2021/06/05 09:30:46;;;;;;;7.88;5.95;;;28.50;48.40;;;;;;5040567;28;20040;-70
2021/06/05 09:33:14;;;;;;;8.52;7.13;;;28.60;48.90;;;;;;5026678;28;20022;-69
2021/06/05 09:35:46;;;;;;;9.27;6.15;;;28.80;46.40;;;;;;5023949;28;20052;-69
2021/06/05 09:38:24;;;;;;;8.40;6.50;;;29.20;46.80;;;;;;5027600;28;20052;-69
2021/06/05 09:41:07;;;;;;;12.30;6.50;;;29.60;44.70;;;;;;5032308;28;20056;-70
2021/06/05 09:43:34;;;;;;;9.40;6.55;;;29.90;44.50;;;;;;5030950;28;20378;-69
2021/06/05 09:46:08;;;;;;;9.95;6.57;;;30.40;42.80;;;;;;5018200;28;20028;-69
2021/06/05 09:48:43;;;;;;;6.93;5.53;;;31.70;39.90;;;;;;5028586;28;20108;-68
2021/06/05 09:51:42;;;;;;;11.23;6.35;;;32.20;39.00;;;;;;5016578;28;20501;-71
2021/06/05 09:54:29;;;;;;;9.30;5.97;;;32.90;38.20;;;;;;5031758;28;20100;-70
2021/06/05 09:57:33;;;;;;;6.55;5.95;;;32.80;38.10;;;;;;5015162;28;20009;-70
2021/06/05 10:00:06;;;;;;;9.63;5.57;;;33.30;38.20;;;;;;5003094;28;20034;-69
2021/06/05 10:02:34;;;;;;;5.50;5.00;;;33.90;36.70;;;;;;5013196;28;20108;-67
2021/06/05 10:05:23;;;;;;;7.22;5.88;;;34.40;35.90;;;;;;5027764;28;20021;-68
2021/06/05 10:07:52;;;;;;;5.90;4.97;;;35.40;34.80;;;;;;5030054;28;20026;-68
2021/06/05 10:10:17;;;;;;;8.45;5.28;;;35.60;32.20;;;;;;5027697;28;20112;-69
2021/06/05 10:12:44;;;;;;;7.30;5.45;;;34.40;33.60;;;;;;5030000;28;20109;-68
2021/06/05 10:15:28;;;;;;;5.70;4.50;;;34.50;33.50;;;;;;5031446;28;20021;-69
2021/06/05 10:18:05;;;;;;;12.95;6.13;;;35.10;32.90;;;;;;5029478;28;20083;-68
2021/06/05 10:21:00;;;;;;;9.13;5.38;;;34.60;32.70;;;;;;5029871;28;20497;-68
2021/06/05 10:23:35;;;;;;;7.78;5.63;;;32.70;35.80;;;;;;5019848;28;20025;-67
2021/06/05 10:26:05;;;;;;;6.88;6.07;;;32.10;37.20;;;;;;5023059;28;20103;-68
2021/06/05 10:28:36;;;;;;;6.63;6.03;;;32.00;37.20;;;;;;5031193;28;20435;-69
2021/06/05 10:31:09;;;;;;;8.57;6.80;;;32.10;37.70;;;;;;5031498;28;20470;-69
2021/06/05 10:33:56;;;;;;;7.72;6.90;;;31.80;39.00;;;;;;5022631;28;20487;-69
2021/06/05 10:36:27;;;;;;;8.93;7.30;;;31.80;38.00;;;;;;5026391;28;20021;-69
2021/06/05 10:38:54;;;;;;;;;;;31.00;38.80;;;;;;5015354;28;20573;-70
2021/06/05 10:41:33;;;;;;;8.30;7.40;;;30.60;39.90;;;;;;5031178;28;19901;-70
2021/06/05 10:43:58;;;;;;;9.95;7.32;;;30.40;40.90;;;;;;5025398;28;20075;-69
2021/06/05 10:46:47;;;;;;;10.48;7.63;;;30.40;41.70;;;;;;5027501;28;20025;-68
2021/06/05 10:49:31;;;;;;;8.45;7.53;;;30.30;42.90;;;;;;5017384;28;20021;-68
2021/06/05 10:52:05;;;;;;;8.68;7.78;;;30.00;42.00;;;;;;5029413;28;20113;-69
2021/06/05 10:54:33;;;;;;;9.10;7.43;;;29.60;43.80;;;;;;5013394;28;20101;-68
2021/06/05 10:57:24;;;;;;;9.68;8.65;;;29.40;43.70;;;;;;5025577;28;20041;-69
2021/06/05 10:59:55;;;;;;;9.27;7.38;;;29.20;45.30;;;;;;5030758;28;20467;-69
2021/06/05 11:02:41;;;;;;;9.05;7.40;;;29.00;43.90;;;;;;5030805;28;20034;-69
2021/06/05 11:05:30;;;;;;;9.23;7.78;;;28.50;45.40;;;;;;5015191;28;20020;-69
2021/06/05 11:08:08;;;;;;;11.27;8.25;;;28.10;45.60;;;;;;5029217;28;20017;-66
2021/06/05 11:11:01;;;;;;;9.88;8.57;;;27.60;48.30;;;;;;5013795;28;20475;-68
2021/06/05 11:13:35;;;;;;;8.55;7.70;;;27.40;48.60;;;;;;5021399;28;20041;-70
2021/06/05 11:16:17;;;;;;;10.25;7.03;;;27.60;47.60;;;;;;5022470;28;20028;-69
2021/06/05 11:18:57;;;;;;;8.02;7.00;;;27.50;46.50;;;;;;5014303;28;20046;-69
2021/06/05 11:21:23;;;;;;;10.85;6.78;;;27.60;44.50;;;;;;5023295;28;20014;-67
2021/06/05 11:24:12;;;;;;;10.90;7.13;;;27.90;44.10;;;;;;5022153;28;20031;-69
2021/06/05 11:26:49;;;;;;;10.73;7.88;;;28.20;44.60;;;;;;5012558;28;20037;-71
2021/06/05 11:29:21;;;;;;;10.02;6.93;;;28.20;45.80;;;;;;5024335;28;20029;-70
2021/06/05 11:32:14;;;;;;;19.20;7.53;;;28.30;45.20;;;;;;5023896;28;20549;-69
2021/06/05 11:34:42;;;;;;;9.73;7.18;;;28.40;44.40;;;;;;5018563;28;20083;-71
2021/06/05 11:37:14;;;;;;;11.18;8.38;;;28.20;44.20;;;;;;5019904;28;20060;-69
2021/06/05 11:39:48;;;;;;;12.30;8.27;;;27.90;44.00;;;;;;5020175;28;20022;-70
2021/06/05 11:42:20;;;;;;;10.13;7.93;;;28.00;45.40;;;;;;5030129;28;20021;-69
2021/06/05 11:44:47;;;;;;;11.80;6.97;;;28.00;44.50;;;;;;5014005;28;20030;-70
2021/06/05 11:47:16;;;;;;;10.00;7.45;;;28.10;45.00;;;;;;5023236;28;20056;-69
2021/06/05 11:49:42;;;;;;;8.27;6.65;;;28.50;43.70;;;;;;5026233;28;20057;-68
2021/06/05 11:52:22;;;;;;;8.15;7.32;;;28.70;43.40;;;;;;5025251;28;20044;-70
2021/06/05 11:54:48;;;;;;;12.68;6.40;;;29.00;42.50;;;;;;5026361;28;20022;-70
2021/06/05 11:57:23;;;;;;;9.45;6.57;;;29.40;42.60;;;;;;5015362;28;20014;-69
2021/06/05 11:59:49;;;;;;;7.20;6.50;;;29.40;40.40;;;;;;5017246;28;20443;-69
2021/06/05 12:02:26;;;;;;;11.30;7.80;;;29.00;41.70;;;;;;5024422;28;20029;-69
2021/06/05 12:05:03;;;;;;;7.57;6.63;;;28.10;43.20;;;;;;5012640;28;20060;-68
2021/06/05 12:07:41;;;;;;;8.70;6.45;;;28.20;43.70;;;;;;5021349;28;20022;-69
2021/06/05 12:10:10;;;;;;;7.95;6.50;;;28.60;43.70;;;;;;5023716;28;20025;-68
2021/06/05 12:12:48;;;;;;;6.70;5.53;;;29.00;42.40;;;;;;5012761;28;20018;-69
2021/06/05 12:15:25;;;;;;;7.80;6.57;;;29.20;41.00;;;;;;5024132;28;20442;-67
2021/06/05 12:18:01;;;;;;;7.57;6.07;;;28.70;41.10;;;;;;5021520;28;20017;-70
2021/06/05 12:20:45;;;;;;;8.38;5.65;;;28.00;43.20;;;;;;5013531;28;20408;-69
2021/06/05 12:23:21;;;;;;;6.15;5.55;;;27.70;42.80;;;;;;5014193;28;20414;-68
2021/06/05 12:25:47;;;;;;;8.13;6.20;;;27.50;44.60;;;;;;5033990;28;20030;-70
2021/06/05 12:28:15;;;;;;;5.97;5.35;;;27.50;42.70;;;;;;5022415;28;20581;-67
2021/06/05 12:30:44;;;;;;;9.52;5.53;;;27.80;43.00;;;;;;5031296;28;20065;-68
2021/06/05 12:33:12;;;;;;;8.93;5.85;;;28.00;42.90;;;;;;5035743;28;20045;-72
2021/06/05 12:35:47;;;;;;;8.23;5.93;;;28.00;42.60;;;;;;5036494;28;20018;-72
2021/06/05 12:38:38;;;;;;;6.20;5.60;;;28.10;42.90;;;;;;5033696;28;21708;-68
2021/06/05 12:41:08;;;;;;;11.68;5.30;;;28.80;41.30;;;;;;5035279;28;20094;-72
2021/06/05 12:43:37;;;;;;;8.07;5.57;;;28.80;40.00;;;;;;5033976;28;20028;-72
2021/06/05 12:46:10;;;;;;;6.82;5.50;;;28.70;41.10;;;;;;5032978;28;20017;-70
2021/06/05 12:48:37;;;;;;;10.52;6.22;;;28.60;41.60;;;;;;5031898;28;20080;-73
2021/06/05 12:51:05;;;;;;;5.95;5.10;;;28.10;42.50;;;;;;5032734;28;20072;-71
2021/06/05 12:53:32;;;;;;;5.65;5.15;;;27.30;43.60;;;;;;5032378;28;20104;-71
2021/06/05 12:56:25;;;;;;;10.30;5.50;;;27.00;44.40;;;;;;5032504;28;20034;-71
2021/06/05 12:58:57;;;;;;;10.13;5.35;;;26.70;45.20;;;;;;5031938;28;20562;-71
2021/06/05 13:01:31;;;;;;;7.63;5.30;;;26.90;45.00;;;;;;5033102;28;20060;-71